Ana Sayfa
METAR-TAF:

METAR-TAF

Havaalanları :

Danbury Municipal Airport

Danbury, Connecticut, Amerika Birleşik Devletleri

Enlem: 41-22-18N, Boylam: 073-29-04W, yükseklik: 139 m

Güncel hava durumu gözlemi

Rapor saat 04:53 UTC de 20 dakika önce yapıldı.
Rüzgar kuzey/kuzeybatıdan 11 kt ve 24 kt'a kadar ani rüzgarlar, kuzeybatı ve kuzey/kuzeydoğu arasında değişken
Sıcaklık 7°C
Nem 66%
Basınç 1002 hPa
Görüş mesafesi: 16.1 km
3000 ft yükseklikte parçalı bulutlu
4800 ft yükseklikte parçalı çok bulutlu
7000 ft yükseklikte çok bulutlu
hafif yağmur

METAR: KDXR 030453Z AUTO 34011G24KT 310V020 10SM -RA SCT030 BKN048 OVC070 07/01 A2960 RMK AO2 PK WND 33029/0426 RAB50 SLP025 P0000 T00670006 401170022

Saat: 01:13 (05:13 UTC)


TAF: eksik

4.000'den fazla havaalanı için hava durumu gözlemleri ve tahminleri (METAR ve TAF raporları).

Kullanılabilir istasyonlar harita üzerinde sarı ve kırmızı noktalarla gösterilir.

İstasyonun adını görmek için fareyi noktanın üzerinde gezdirin.

Sonrasında hava gözlem ve tahminlerini görmek için tıklayın.

Haritayı değiştirmek için: yaklaştırmak için siyah artı işaretli yeşil düğmeye ve uzaklaştırmak için de eksi işaretli düğmeye hızla tıklayın; bitişik haritalar için yeşil okları kullanın.


METAR-TAF: